Terminal Aerodrome Forecast
Issued by NWS

Home | Current Version | Previous Version | Text Only | Print | Product List | Glossary On
Versions: 1 2 3 4 5 6 7 8 9 10 11 12 13
000
FTUS41 KPBZ 202300
TAFZZV
TAF
KZZV 202323Z 2100/2124 20008KT P6SM SCT040
     FM210700 21007KT P6SM VCSH BKN015
     FM211400 25012G22KT 4SM -SHRA OVC030
     FM212200 28010KT P6SM BKN035=

USA.gov is the U.S. government's official web portal to all federal, state and local government web resources and services.